sensor_id;sensor_type;location;lat;lon;timestamp;temperature;humidity
16417;DHT22;8317;52.186;5.688;2022-07-23T00:01:28;15.70;99.90
16417;DHT22;8317;52.186;5.688;2022-07-23T00:03:56;15.40;99.90
16417;DHT22;8317;52.186;5.688;2022-07-23T00:06:24;15.30;99.90
16417;DHT22;8317;52.186;5.688;2022-07-23T00:08:51;15.30;99.90
16417;DHT22;8317;52.186;5.688;2022-07-23T00:11:18;15.40;99.90
16417;DHT22;8317;52.186;5.688;2022-07-23T00:13:47;15.10;99.90
16417;DHT22;8317;52.186;5.688;2022-07-23T00:16:14;15.20;99.90
16417;DHT22;8317;52.186;5.688;2022-07-23T00:18:41;15.40;99.90
16417;DHT22;8317;52.186;5.688;2022-07-23T00:21:08;15.00;99.90
16417;DHT22;8317;52.186;5.688;2022-07-23T00:23:36;15.20;99.90
16417;DHT22;8317;52.186;5.688;2022-07-23T00:26:03;15.00;99.90
16417;DHT22;8317;52.186;5.688;2022-07-23T00:28:33;14.90;99.90
16417;DHT22;8317;52.186;5.688;2022-07-23T00:31:00;15.00;99.90
16417;DHT22;8317;52.186;5.688;2022-07-23T00:33:26;15.10;99.90
16417;DHT22;8317;52.186;5.688;2022-07-23T00:35:53;15.00;99.90
16417;DHT22;8317;52.186;5.688;2022-07-23T00:38:20;14.90;99.90
16417;DHT22;8317;52.186;5.688;2022-07-23T00:40:48;14.80;99.90
16417;DHT22;8317;52.186;5.688;2022-07-23T00:43:15;14.90;99.90
16417;DHT22;8317;52.186;5.688;2022-07-23T00:45:42;14.70;99.90
16417;DHT22;8317;52.186;5.688;2022-07-23T00:48:09;14.60;99.90
16417;DHT22;8317;52.186;5.688;2022-07-23T00:50:36;14.70;99.90
16417;DHT22;8317;52.186;5.688;2022-07-23T00:53:03;14.90;99.90
16417;DHT22;8317;52.186;5.688;2022-07-23T00:55:31;14.70;99.90
16417;DHT22;8317;52.186;5.688;2022-07-23T00:57:59;14.80;99.90
16417;DHT22;8317;52.186;5.688;2022-07-23T01:00:27;14.50;99.90
16417;DHT22;8317;52.186;5.688;2022-07-23T01:02:54;14.70;99.90
16417;DHT22;8317;52.186;5.688;2022-07-23T01:05:21;14.50;99.90
16417;DHT22;8317;52.186;5.688;2022-07-23T01:07:48;14.60;99.90
16417;DHT22;8317;52.186;5.688;2022-07-23T01:10:16;14.50;99.90
16417;DHT22;8317;52.186;5.688;2022-07-23T01:13:01;14.50;99.90
16417;DHT22;8317;52.186;5.688;2022-07-23T01:15:28;14.60;99.90
16417;DHT22;8317;52.186;5.688;2022-07-23T01:17:55;14.80;99.90
16417;DHT22;8317;52.186;5.688;2022-07-23T01:20:22;14.50;99.90
16417;DHT22;8317;52.186;5.688;2022-07-23T01:22:51;14.60;99.90
16417;DHT22;8317;52.186;5.688;2022-07-23T01:25:19;14.50;99.90
16417;DHT22;8317;52.186;5.688;2022-07-23T01:27:46;14.40;99.90
16417;DHT22;8317;52.186;5.688;2022-07-23T01:30:13;14.70;99.90
16417;DHT22;8317;52.186;5.688;2022-07-23T01:32:40;14.60;99.90
16417;DHT22;8317;52.186;5.688;2022-07-23T01:35:08;14.50;99.90
16417;DHT22;8317;52.186;5.688;2022-07-23T01:37:36;14.50;99.90
16417;DHT22;8317;52.186;5.688;2022-07-23T01:40:06;14.40;99.90
16417;DHT22;8317;52.186;5.688;2022-07-23T01:42:33;14.50;99.90
16417;DHT22;8317;52.186;5.688;2022-07-23T01:44:59;14.40;99.90
16417;DHT22;8317;52.186;5.688;2022-07-23T01:47:26;14.30;99.90
16417;DHT22;8317;52.186;5.688;2022-07-23T01:49:53;14.40;99.90
16417;DHT22;8317;52.186;5.688;2022-07-23T01:52:20;14.30;99.90
16417;DHT22;8317;52.186;5.688;2022-07-23T01:54:47;14.30;99.90
16417;DHT22;8317;52.186;5.688;2022-07-23T01:57:15;14.10;99.90
16417;DHT22;8317;52.186;5.688;2022-07-23T01:59:42;14.10;99.90
16417;DHT22;8317;52.186;5.688;2022-07-23T02:02:09;14.00;99.90
16417;DHT22;8317;52.186;5.688;2022-07-23T02:04:36;14.10;99.90
16417;DHT22;8317;52.186;5.688;2022-07-23T02:07:03;14.00;99.90
16417;DHT22;8317;52.186;5.688;2022-07-23T02:09:30;13.90;99.90
16417;DHT22;8317;52.186;5.688;2022-07-23T02:11:57;14.10;99.90
16417;DHT22;8317;52.186;5.688;2022-07-23T02:14:26;13.90;99.90
16417;DHT22;8317;52.186;5.688;2022-07-23T02:16:53;13.80;99.90
16417;DHT22;8317;52.186;5.688;2022-07-23T02:19:20;13.70;99.90
16417;DHT22;8317;52.186;5.688;2022-07-23T02:21:47;13.80;99.90
16417;DHT22;8317;52.186;5.688;2022-07-23T02:24:14;13.80;99.90
16417;DHT22;8317;52.186;5.688;2022-07-23T02:26:41;13.60;99.90
16417;DHT22;8317;52.186;5.688;2022-07-23T02:29:08;13.80;99.90
16417;DHT22;8317;52.186;5.688;2022-07-23T02:31:37;13.60;99.90
16417;DHT22;8317;52.186;5.688;2022-07-23T02:34:03;13.70;99.90
16417;DHT22;8317;52.186;5.688;2022-07-23T02:36:30;13.50;99.90
16417;DHT22;8317;52.186;5.688;2022-07-23T02:38:57;13.50;99.90
16417;DHT22;8317;52.186;5.688;2022-07-23T02:41:24;13.60;99.90
16417;DHT22;8317;52.186;5.688;2022-07-23T02:43:51;13.40;99.90
16417;DHT22;8317;52.186;5.688;2022-07-23T02:46:18;13.80;99.90
16417;DHT22;8317;52.186;5.688;2022-07-23T02:48:46;13.80;99.90
16417;DHT22;8317;52.186;5.688;2022-07-23T02:51:13;13.60;99.90
16417;DHT22;8317;52.186;5.688;2022-07-23T02:53:40;13.50;99.90
16417;DHT22;8317;52.186;5.688;2022-07-23T02:56:07;13.50;99.90
16417;DHT22;8317;52.186;5.688;2022-07-23T02:58:34;13.60;99.90
16417;DHT22;8317;52.186;5.688;2022-07-23T03:01:01;13.40;99.90
16417;DHT22;8317;52.186;5.688;2022-07-23T03:03:28;13.40;99.90
16417;DHT22;8317;52.186;5.688;2022-07-23T03:05:57;13.30;99.90
16417;DHT22;8317;52.186;5.688;2022-07-23T03:08:24;13.30;99.90
16417;DHT22;8317;52.186;5.688;2022-07-23T03:10:51;13.30;99.90
16417;DHT22;8317;52.186;5.688;2022-07-23T03:13:17;13.20;99.90
16417;DHT22;8317;52.186;5.688;2022-07-23T03:15:44;13.20;99.90
16417;DHT22;8317;52.186;5.688;2022-07-23T03:18:11;13.10;99.90
16417;DHT22;8317;52.186;5.688;2022-07-23T03:20:38;13.10;99.90
16417;DHT22;8317;52.186;5.688;2022-07-23T03:23:06;13.10;99.90
16417;DHT22;8317;52.186;5.688;2022-07-23T03:25:33;13.00;99.90
16417;DHT22;8317;52.186;5.688;2022-07-23T03:28:00;13.00;99.90
16417;DHT22;8317;52.186;5.688;2022-07-23T03:30:27;13.00;99.90
16417;DHT22;8317;52.186;5.688;2022-07-23T03:32:54;13.00;99.90
16417;DHT22;8317;52.186;5.688;2022-07-23T03:35:21;12.90;99.90
16417;DHT22;8317;52.186;5.688;2022-07-23T03:37:47;12.90;99.90
16417;DHT22;8317;52.186;5.688;2022-07-23T03:40:16;13.00;99.90
16417;DHT22;8317;52.186;5.688;2022-07-23T03:42:43;12.90;99.90
16417;DHT22;8317;52.186;5.688;2022-07-23T03:45:11;12.90;99.90
16417;DHT22;8317;52.186;5.688;2022-07-23T03:47:38;13.00;99.90
16417;DHT22;8317;52.186;5.688;2022-07-23T03:50:06;13.20;99.90
16417;DHT22;8317;52.186;5.688;2022-07-23T03:52:33;13.00;99.90
16417;DHT22;8317;52.186;5.688;2022-07-23T03:55:00;12.70;99.90
16417;DHT22;8317;52.186;5.688;2022-07-23T03:57:28;12.80;99.90
16417;DHT22;8317;52.186;5.688;2022-07-23T03:59:56;12.80;99.90
16417;DHT22;8317;52.186;5.688;2022-07-23T04:02:22;12.90;99.90
16417;DHT22;8317;52.186;5.688;2022-07-23T04:04:49;12.90;99.90
16417;DHT22;8317;52.186;5.688;2022-07-23T04:07:16;12.60;99.90
16417;DHT22;8317;52.186;5.688;2022-07-23T04:09:44;12.70;99.90
16417;DHT22;8317;52.186;5.688;2022-07-23T04:12:11;12.70;99.90
16417;DHT22;8317;52.186;5.688;2022-07-23T04:14:39;12.60;99.90
16417;DHT22;8317;52.186;5.688;2022-07-23T04:17:06;12.60;99.90
16417;DHT22;8317;52.186;5.688;2022-07-23T04:19:33;12.60;99.90
16417;DHT22;8317;52.186;5.688;2022-07-23T04:22:01;12.70;99.90
16417;DHT22;8317;52.186;5.688;2022-07-23T04:24:28;12.60;99.90
16417;DHT22;8317;52.186;5.688;2022-07-23T04:26:54;12.70;99.90
16417;DHT22;8317;52.186;5.688;2022-07-23T04:29:21;12.90;99.90
16417;DHT22;8317;52.186;5.688;2022-07-23T04:31:50;12.90;99.90
16417;DHT22;8317;52.186;5.688;2022-07-23T04:34:16;12.80;99.90
16417;DHT22;8317;52.186;5.688;2022-07-23T04:36:43;13.00;99.90
16417;DHT22;8317;52.186;5.688;2022-07-23T04:39:10;12.90;99.90
16417;DHT22;8317;52.186;5.688;2022-07-23T04:41:37;13.10;99.90
16417;DHT22;8317;52.186;5.688;2022-07-23T04:44:04;13.00;99.90
16417;DHT22;8317;52.186;5.688;2022-07-23T04:46:31;13.10;99.90
16417;DHT22;8317;52.186;5.688;2022-07-23T04:48:59;13.00;99.90
16417;DHT22;8317;52.186;5.688;2022-07-23T04:51:26;13.10;99.90
16417;DHT22;8317;52.186;5.688;2022-07-23T04:53:54;13.00;99.90
16417;DHT22;8317;52.186;5.688;2022-07-23T04:56:22;13.00;99.90
16417;DHT22;8317;52.186;5.688;2022-07-23T04:58:49;13.00;99.90
16417;DHT22;8317;52.186;5.688;2022-07-23T05:01:15;13.10;99.90
16417;DHT22;8317;52.186;5.688;2022-07-23T05:03:42;13.10;99.90
16417;DHT22;8317;52.186;5.688;2022-07-23T05:06:11;13.10;99.90
16417;DHT22;8317;52.186;5.688;2022-07-23T05:08:37;13.10;99.90
16417;DHT22;8317;52.186;5.688;2022-07-23T05:11:05;13.20;99.90
16417;DHT22;8317;52.186;5.688;2022-07-23T05:13:32;13.30;99.90
16417;DHT22;8317;52.186;5.688;2022-07-23T05:15:58;13.30;99.90
16417;DHT22;8317;52.186;5.688;2022-07-23T05:18:25;13.30;99.90
16417;DHT22;8317;52.186;5.688;2022-07-23T05:20:52;13.50;99.90
16417;DHT22;8317;52.186;5.688;2022-07-23T05:23:20;13.50;99.90
16417;DHT22;8317;52.186;5.688;2022-07-23T05:25:47;13.40;99.90
16417;DHT22;8317;52.186;5.688;2022-07-23T05:28:15;13.50;99.90
16417;DHT22;8317;52.186;5.688;2022-07-23T05:30:42;13.70;99.90
16417;DHT22;8317;52.186;5.688;2022-07-23T05:33:09;13.70;99.90
16417;DHT22;8317;52.186;5.688;2022-07-23T05:35:36;13.80;99.90
16417;DHT22;8317;52.186;5.688;2022-07-23T05:38:02;13.90;99.90
16417;DHT22;8317;52.186;5.688;2022-07-23T05:40:31;14.00;99.90
16417;DHT22;8317;52.186;5.688;2022-07-23T05:42:58;14.00;99.90
16417;DHT22;8317;52.186;5.688;2022-07-23T05:45:25;14.00;99.90
16417;DHT22;8317;52.186;5.688;2022-07-23T05:47:52;14.30;99.90
16417;DHT22;8317;52.186;5.688;2022-07-23T05:50:19;14.40;99.90
16417;DHT22;8317;52.186;5.688;2022-07-23T05:52:46;14.50;99.90
16417;DHT22;8317;52.186;5.688;2022-07-23T05:55:13;14.70;99.90
16417;DHT22;8317;52.186;5.688;2022-07-23T05:57:41;14.80;99.90
16417;DHT22;8317;52.186;5.688;2022-07-23T06:00:10;15.10;99.90
16417;DHT22;8317;52.186;5.688;2022-07-23T06:02:37;15.40;99.90
16417;DHT22;8317;52.186;5.688;2022-07-23T06:05:05;15.40;99.90
16417;DHT22;8317;52.186;5.688;2022-07-23T06:07:33;15.70;99.90
16417;DHT22;8317;52.186;5.688;2022-07-23T06:10:00;16.10;99.90
16417;DHT22;8317;52.186;5.688;2022-07-23T06:12:27;15.90;99.90
16417;DHT22;8317;52.186;5.688;2022-07-23T06:14:55;16.40;99.90
16417;DHT22;8317;52.186;5.688;2022-07-23T06:17:22;16.50;99.90
16417;DHT22;8317;52.186;5.688;2022-07-23T06:19:49;16.50;99.90
16417;DHT22;8317;52.186;5.688;2022-07-23T06:22:16;17.00;99.90
16417;DHT22;8317;52.186;5.688;2022-07-23T06:24:43;17.00;99.90
16417;DHT22;8317;52.186;5.688;2022-07-23T06:27:09;17.30;99.90
16417;DHT22;8317;52.186;5.688;2022-07-23T06:29:36;17.60;99.90
16417;DHT22;8317;52.186;5.688;2022-07-23T06:32:05;17.40;99.90
16417;DHT22;8317;52.186;5.688;2022-07-23T06:34:32;17.60;99.90
16417;DHT22;8317;52.186;5.688;2022-07-23T06:36:59;17.80;99.90
16417;DHT22;8317;52.186;5.688;2022-07-23T06:39:26;17.70;99.90
16417;DHT22;8317;52.186;5.688;2022-07-23T06:41:53;18.10;99.90
16417;DHT22;8317;52.186;5.688;2022-07-23T06:44:21;18.20;99.90
16417;DHT22;8317;52.186;5.688;2022-07-23T06:46:48;18.20;99.90
16417;DHT22;8317;52.186;5.688;2022-07-23T06:49:16;18.50;99.90
16417;DHT22;8317;52.186;5.688;2022-07-23T06:51:43;18.60;99.90
16417;DHT22;8317;52.186;5.688;2022-07-23T06:54:09;18.80;99.90
16417;DHT22;8317;52.186;5.688;2022-07-23T06:56:36;18.90;99.90
16417;DHT22;8317;52.186;5.688;2022-07-23T06:59:03;18.90;99.90
16417;DHT22;8317;52.186;5.688;2022-07-23T07:01:30;19.20;99.90
16417;DHT22;8317;52.186;5.688;2022-07-23T07:03:57;19.30;99.90
16417;DHT22;8317;52.186;5.688;2022-07-23T07:06:25;19.50;99.90
16417;DHT22;8317;52.186;5.688;2022-07-23T07:08:52;19.50;99.90
16417;DHT22;8317;52.186;5.688;2022-07-23T07:11:19;19.70;99.90
16417;DHT22;8317;52.186;5.688;2022-07-23T07:13:46;19.80;99.90
16417;DHT22;8317;52.186;5.688;2022-07-23T07:16:13;20.10;99.90
16417;DHT22;8317;52.186;5.688;2022-07-23T07:18:40;20.10;99.90
16417;DHT22;8317;52.186;5.688;2022-07-23T07:21:06;20.30;99.90
16417;DHT22;8317;52.186;5.688;2022-07-23T07:23:35;20.00;99.90
16417;DHT22;8317;52.186;5.688;2022-07-23T07:26:02;20.20;99.90
16417;DHT22;8317;52.186;5.688;2022-07-23T07:28:28;20.40;99.90
16417;DHT22;8317;52.186;5.688;2022-07-23T07:30:55;20.20;99.90
16417;DHT22;8317;52.186;5.688;2022-07-23T07:33:22;20.20;99.90
16417;DHT22;8317;52.186;5.688;2022-07-23T07:35:49;20.50;99.90
16417;DHT22;8317;52.186;5.688;2022-07-23T07:38:16;20.50;99.90
16417;DHT22;8317;52.186;5.688;2022-07-23T07:40:44;20.30;99.90
16417;DHT22;8317;52.186;5.688;2022-07-23T07:43:11;19.90;99.90
16417;DHT22;8317;52.186;5.688;2022-07-23T07:45:38;19.60;99.90
16417;DHT22;8317;52.186;5.688;2022-07-23T07:48:05;19.60;99.90
16417;DHT22;8317;52.186;5.688;2022-07-23T07:50:32;19.40;99.90
16417;DHT22;8317;52.186;5.688;2022-07-23T07:52:59;19.30;99.90
16417;DHT22;8317;52.186;5.688;2022-07-23T07:55:26;19.10;99.90
16417;DHT22;8317;52.186;5.688;2022-07-23T07:57:55;19.40;99.90
16417;DHT22;8317;52.186;5.688;2022-07-23T08:00:22;19.20;99.90
16417;DHT22;8317;52.186;5.688;2022-07-23T08:02:51;19.20;99.90
16417;DHT22;8317;52.186;5.688;2022-07-23T08:05:19;19.50;99.90
16417;DHT22;8317;52.186;5.688;2022-07-23T08:07:47;19.80;99.90
16417;DHT22;8317;52.186;5.688;2022-07-23T08:10:15;20.20;99.90
16417;DHT22;8317;52.186;5.688;2022-07-23T08:12:43;20.50;99.90
16417;DHT22;8317;52.186;5.688;2022-07-23T08:15:13;20.70;99.90
16417;DHT22;8317;52.186;5.688;2022-07-23T08:17:41;20.90;99.90
16417;DHT22;8317;52.186;5.688;2022-07-23T08:20:10;21.10;99.90
16417;DHT22;8317;52.186;5.688;2022-07-23T08:22:48;21.40;99.90
16417;DHT22;8317;52.186;5.688;2022-07-23T08:25:15;21.50;99.90
16417;DHT22;8317;52.186;5.688;2022-07-23T08:27:42;21.60;99.90
16417;DHT22;8317;52.186;5.688;2022-07-23T08:30:10;21.90;99.90
16417;DHT22;8317;52.186;5.688;2022-07-23T08:33:03;22.10;99.90
16417;DHT22;8317;52.186;5.688;2022-07-23T08:35:31;22.30;99.90
16417;DHT22;8317;52.186;5.688;2022-07-23T08:38:01;22.10;99.90
16417;DHT22;8317;52.186;5.688;2022-07-23T08:40:30;22.30;99.90
16417;DHT22;8317;52.186;5.688;2022-07-23T08:42:57;22.60;99.90
16417;DHT22;8317;52.186;5.688;2022-07-23T08:45:26;22.30;99.90
16417;DHT22;8317;52.186;5.688;2022-07-23T08:47:55;22.00;99.90
16417;DHT22;8317;52.186;5.688;2022-07-23T08:50:24;21.90;99.90
16417;DHT22;8317;52.186;5.688;2022-07-23T08:52:52;22.20;99.90
16417;DHT22;8317;52.186;5.688;2022-07-23T08:55:21;22.50;99.90
16417;DHT22;8317;52.186;5.688;2022-07-23T08:57:49;22.80;99.90
16417;DHT22;8317;52.186;5.688;2022-07-23T09:00:17;23.00;99.90
16417;DHT22;8317;52.186;5.688;2022-07-23T09:02:46;22.90;99.90
16417;DHT22;8317;52.186;5.688;2022-07-23T09:05:14;22.90;99.90
16417;DHT22;8317;52.186;5.688;2022-07-23T09:08:04;23.10;99.90
16417;DHT22;8317;52.186;5.688;2022-07-23T09:10:46;23.50;99.90
16417;DHT22;8317;52.186;5.688;2022-07-23T09:13:28;24.10;99.90
16417;DHT22;8317;52.186;5.688;2022-07-23T09:15:57;24.00;99.90
16417;DHT22;8317;52.186;5.688;2022-07-23T09:18:32;24.00;99.90
16417;DHT22;8317;52.186;5.688;2022-07-23T09:21:08;24.00;99.90
16417;DHT22;8317;52.186;5.688;2022-07-23T09:23:41;23.70;99.90
16417;DHT22;8317;52.186;5.688;2022-07-23T09:26:25;23.80;99.90
16417;DHT22;8317;52.186;5.688;2022-07-23T09:28:57;24.10;99.90
16417;DHT22;8317;52.186;5.688;2022-07-23T09:31:30;24.30;99.90
16417;DHT22;8317;52.186;5.688;2022-07-23T09:34:07;24.10;99.90
16417;DHT22;8317;52.186;5.688;2022-07-23T09:36:35;24.10;99.90
16417;DHT22;8317;52.186;5.688;2022-07-23T09:39:03;24.20;99.90
16417;DHT22;8317;52.186;5.688;2022-07-23T09:41:35;24.00;99.90
16417;DHT22;8317;52.186;5.688;2022-07-23T09:44:08;24.00;99.90
16417;DHT22;8317;52.186;5.688;2022-07-23T09:46:35;24.00;99.90
16417;DHT22;8317;52.186;5.688;2022-07-23T09:49:11;24.20;99.90
16417;DHT22;8317;52.186;5.688;2022-07-23T09:51:44;24.40;99.90
16417;DHT22;8317;52.186;5.688;2022-07-23T09:54:26;24.70;99.90
16417;DHT22;8317;52.186;5.688;2022-07-23T09:56:55;24.90;99.90
16417;DHT22;8317;52.186;5.688;2022-07-23T09:59:24;24.70;99.90
16417;DHT22;8317;52.186;5.688;2022-07-23T10:01:53;24.50;99.90
16417;DHT22;8317;52.186;5.688;2022-07-23T10:04:22;24.50;99.90
16417;DHT22;8317;52.186;5.688;2022-07-23T10:06:52;24.50;99.90
16417;DHT22;8317;52.186;5.688;2022-07-23T10:09:24;24.90;99.90
16417;DHT22;8317;52.186;5.688;2022-07-23T10:11:55;24.90;99.90
16417;DHT22;8317;52.186;5.688;2022-07-23T10:14:25;24.90;99.90
16417;DHT22;8317;52.186;5.688;2022-07-23T10:16:53;24.80;99.90
16417;DHT22;8317;52.186;5.688;2022-07-23T10:19:20;25.20;99.90
16417;DHT22;8317;52.186;5.688;2022-07-23T10:21:49;25.10;99.90
16417;DHT22;8317;52.186;5.688;2022-07-23T10:24:23;24.90;99.90
16417;DHT22;8317;52.186;5.688;2022-07-23T10:27:02;24.70;99.90
16417;DHT22;8317;52.186;5.688;2022-07-23T10:29:39;24.80;99.90
16417;DHT22;8317;52.186;5.688;2022-07-23T10:32:17;24.70;99.90
16417;DHT22;8317;52.186;5.688;2022-07-23T10:34:52;24.70;99.90
16417;DHT22;8317;52.186;5.688;2022-07-23T10:37:25;25.70;99.90
16417;DHT22;8317;52.186;5.688;2022-07-23T10:40:14;25.60;99.90
16417;DHT22;8317;52.186;5.688;2022-07-23T10:42:43;25.00;99.90
16417;DHT22;8317;52.186;5.688;2022-07-23T10:45:24;24.90;99.90
16417;DHT22;8317;52.186;5.688;2022-07-23T10:47:52;25.50;99.90
16417;DHT22;8317;52.186;5.688;2022-07-23T10:50:21;26.00;99.90
16417;DHT22;8317;52.186;5.688;2022-07-23T10:53:14;26.20;99.90
16417;DHT22;8317;52.186;5.688;2022-07-23T10:55:48;26.10;99.90
16417;DHT22;8317;52.186;5.688;2022-07-23T10:58:21;25.70;99.90
16417;DHT22;8317;52.186;5.688;2022-07-23T11:00:49;25.50;99.90
16417;DHT22;8317;52.186;5.688;2022-07-23T11:03:37;25.40;99.90
16417;DHT22;8317;52.186;5.688;2022-07-23T11:06:05;25.70;99.90
16417;DHT22;8317;52.186;5.688;2022-07-23T11:08:32;25.60;99.90
16417;DHT22;8317;52.186;5.688;2022-07-23T11:11:11;25.30;99.90
16417;DHT22;8317;52.186;5.688;2022-07-23T11:13:45;25.30;99.90
16417;DHT22;8317;52.186;5.688;2022-07-23T11:16:18;25.20;99.90
16417;DHT22;8317;52.186;5.688;2022-07-23T11:19:04;25.50;99.90
16417;DHT22;8317;52.186;5.688;2022-07-23T11:21:52;25.60;99.90
16417;DHT22;8317;52.186;5.688;2022-07-23T11:24:20;26.00;99.90
16417;DHT22;8317;52.186;5.688;2022-07-23T11:26:52;26.10;99.90
16417;DHT22;8317;52.186;5.688;2022-07-23T11:29:42;25.60;99.90
16417;DHT22;8317;52.186;5.688;2022-07-23T11:32:28;25.60;99.90
16417;DHT22;8317;52.186;5.688;2022-07-23T11:34:55;25.70;99.90
16417;DHT22;8317;52.186;5.688;2022-07-23T11:37:37;25.60;99.90
16417;DHT22;8317;52.186;5.688;2022-07-23T11:40:07;25.30;99.90
16417;DHT22;8317;52.186;5.688;2022-07-23T11:42:37;25.30;99.90
16417;DHT22;8317;52.186;5.688;2022-07-23T11:45:07;25.40;99.90
16417;DHT22;8317;52.186;5.688;2022-07-23T11:47:34;25.90;99.90
16417;DHT22;8317;52.186;5.688;2022-07-23T11:50:04;26.40;99.90
16417;DHT22;8317;52.186;5.688;2022-07-23T11:52:32;26.50;99.90
16417;DHT22;8317;52.186;5.688;2022-07-23T11:55:00;26.60;99.90
16417;DHT22;8317;52.186;5.688;2022-07-23T11:57:28;26.40;99.90
16417;DHT22;8317;52.186;5.688;2022-07-23T12:00:05;26.40;99.90
16417;DHT22;8317;52.186;5.688;2022-07-23T12:02:33;25.90;99.90
16417;DHT22;8317;52.186;5.688;2022-07-23T12:05:00;26.10;99.90
16417;DHT22;8317;52.186;5.688;2022-07-23T12:07:31;26.00;99.90
16417;DHT22;8317;52.186;5.688;2022-07-23T12:10:00;25.90;99.90
16417;DHT22;8317;52.186;5.688;2022-07-23T12:12:35;25.70;99.90
16417;DHT22;8317;52.186;5.688;2022-07-23T12:15:05;25.60;99.90
16417;DHT22;8317;52.186;5.688;2022-07-23T12:17:34;25.70;99.90
16417;DHT22;8317;52.186;5.688;2022-07-23T12:20:02;25.90;99.90
16417;DHT22;8317;52.186;5.688;2022-07-23T12:22:35;25.60;99.90
16417;DHT22;8317;52.186;5.688;2022-07-23T12:25:05;25.60;99.90
16417;DHT22;8317;52.186;5.688;2022-07-23T12:27:32;25.50;99.90
16417;DHT22;8317;52.186;5.688;2022-07-23T12:33:10;25.70;99.90
16417;DHT22;8317;52.186;5.688;2022-07-23T12:35:38;25.70;99.90
16417;DHT22;8317;52.186;5.688;2022-07-23T12:38:07;25.90;99.90
16417;DHT22;8317;52.186;5.688;2022-07-23T12:40:37;25.60;99.90
16417;DHT22;8317;52.186;5.688;2022-07-23T12:43:09;25.60;99.90
16417;DHT22;8317;52.186;5.688;2022-07-23T12:45:45;25.70;99.90
16417;DHT22;8317;52.186;5.688;2022-07-23T12:48:19;25.90;99.90
16417;DHT22;8317;52.186;5.688;2022-07-23T12:50:52;25.90;99.90
16417;DHT22;8317;52.186;5.688;2022-07-23T12:53:21;25.60;99.90
16417;DHT22;8317;52.186;5.688;2022-07-23T12:55:50;25.70;99.90
16417;DHT22;8317;52.186;5.688;2022-07-23T12:58:18;25.90;99.90
16417;DHT22;8317;52.186;5.688;2022-07-23T13:01:06;26.00;99.90
16417;DHT22;8317;52.186;5.688;2022-07-23T13:03:39;26.20;99.90
16417;DHT22;8317;52.186;5.688;2022-07-23T13:06:08;26.10;99.90
16417;DHT22;8317;52.186;5.688;2022-07-23T13:08:37;26.20;99.90
16417;DHT22;8317;52.186;5.688;2022-07-23T13:11:06;26.20;99.90
16417;DHT22;8317;52.186;5.688;2022-07-23T13:13:34;26.20;99.90
16417;DHT22;8317;52.186;5.688;2022-07-23T13:16:02;26.00;99.90
16417;DHT22;8317;52.186;5.688;2022-07-23T13:18:29;26.00;99.90
16417;DHT22;8317;52.186;5.688;2022-07-23T13:20:58;26.10;99.90
16417;DHT22;8317;52.186;5.688;2022-07-23T13:23:25;26.00;99.90
16417;DHT22;8317;52.186;5.688;2022-07-23T13:25:53;26.00;99.90
16417;DHT22;8317;52.186;5.688;2022-07-23T13:28:21;26.00;99.90
16417;DHT22;8317;52.186;5.688;2022-07-23T13:30:48;25.60;99.90
16417;DHT22;8317;52.186;5.688;2022-07-23T13:33:16;25.70;99.90
16417;DHT22;8317;52.186;5.688;2022-07-23T13:35:44;25.70;99.90
16417;DHT22;8317;52.186;5.688;2022-07-23T13:38:12;26.00;99.90
16417;DHT22;8317;52.186;5.688;2022-07-23T13:40:42;26.20;99.90
16417;DHT22;8317;52.186;5.688;2022-07-23T13:43:10;26.00;99.90
16417;DHT22;8317;52.186;5.688;2022-07-23T13:45:38;26.10;99.90
16417;DHT22;8317;52.186;5.688;2022-07-23T13:48:06;26.50;99.90
16417;DHT22;8317;52.186;5.688;2022-07-23T13:50:33;26.50;99.90
16417;DHT22;8317;52.186;5.688;2022-07-23T13:53:02;26.40;99.90
16417;DHT22;8317;52.186;5.688;2022-07-23T13:55:30;26.40;99.90
16417;DHT22;8317;52.186;5.688;2022-07-23T13:57:57;26.70;99.90
16417;DHT22;8317;52.186;5.688;2022-07-23T14:00:25;26.20;99.90
16417;DHT22;8317;52.186;5.688;2022-07-23T14:02:52;25.80;99.90
16417;DHT22;8317;52.186;5.688;2022-07-23T14:05:19;25.80;99.90
16417;DHT22;8317;52.186;5.688;2022-07-23T14:07:46;25.90;99.90
16417;DHT22;8317;52.186;5.688;2022-07-23T14:10:16;26.00;99.90
16417;DHT22;8317;52.186;5.688;2022-07-23T14:12:45;26.10;99.90
16417;DHT22;8317;52.186;5.688;2022-07-23T14:15:12;26.20;99.90
16417;DHT22;8317;52.186;5.688;2022-07-23T14:17:41;25.80;99.90
16417;DHT22;8317;52.186;5.688;2022-07-23T14:20:09;26.00;99.90
16417;DHT22;8317;52.186;5.688;2022-07-23T14:22:37;26.20;99.90
16417;DHT22;8317;52.186;5.688;2022-07-23T14:25:06;26.30;99.90
16417;DHT22;8317;52.186;5.688;2022-07-23T14:27:33;26.30;99.90
16417;DHT22;8317;52.186;5.688;2022-07-23T14:30:02;26.40;99.90
16417;DHT22;8317;52.186;5.688;2022-07-23T14:32:29;26.60;99.90
16417;DHT22;8317;52.186;5.688;2022-07-23T14:34:55;26.50;99.90
16417;DHT22;8317;52.186;5.688;2022-07-23T14:37:22;26.40;99.90
16417;DHT22;8317;52.186;5.688;2022-07-23T14:39:50;26.50;99.90
16417;DHT22;8317;52.186;5.688;2022-07-23T14:42:18;26.20;99.90
16417;DHT22;8317;52.186;5.688;2022-07-23T14:44:45;26.40;99.90
16417;DHT22;8317;52.186;5.688;2022-07-23T14:47:13;26.20;99.90
16417;DHT22;8317;52.186;5.688;2022-07-23T14:49:40;25.70;99.90
16417;DHT22;8317;52.186;5.688;2022-07-23T14:52:07;25.50;99.90
16417;DHT22;8317;52.186;5.688;2022-07-23T14:54:34;25.50;99.90
16417;DHT22;8317;52.186;5.688;2022-07-23T14:57:03;25.60;99.90
16417;DHT22;8317;52.186;5.688;2022-07-23T14:59:30;25.80;99.90
16417;DHT22;8317;52.186;5.688;2022-07-23T15:01:57;25.70;99.90
16417;DHT22;8317;52.186;5.688;2022-07-23T15:04:25;26.10;99.90
16417;DHT22;8317;52.186;5.688;2022-07-23T15:06:53;26.00;99.90
16417;DHT22;8317;52.186;5.688;2022-07-23T15:09:20;26.00;99.90
16417;DHT22;8317;52.186;5.688;2022-07-23T15:11:46;25.90;99.90
16417;DHT22;8317;52.186;5.688;2022-07-23T15:14:13;26.00;99.90
16417;DHT22;8317;52.186;5.688;2022-07-23T15:16:40;25.90;99.90
16417;DHT22;8317;52.186;5.688;2022-07-23T15:19:07;26.00;99.90
16417;DHT22;8317;52.186;5.688;2022-07-23T15:21:35;25.90;99.90
16417;DHT22;8317;52.186;5.688;2022-07-23T15:24:03;25.80;99.90
16417;DHT22;8317;52.186;5.688;2022-07-23T15:26:30;25.50;99.90
16417;DHT22;8317;52.186;5.688;2022-07-23T15:28:57;25.50;99.90
16417;DHT22;8317;52.186;5.688;2022-07-23T15:31:25;25.50;99.90
16417;DHT22;8317;52.186;5.688;2022-07-23T15:33:52;25.80;99.90
16417;DHT22;8317;52.186;5.688;2022-07-23T15:36:19;25.70;99.90
16417;DHT22;8317;52.186;5.688;2022-07-23T15:38:48;25.70;99.90
16417;DHT22;8317;52.186;5.688;2022-07-23T15:41:15;25.60;99.90
16417;DHT22;8317;52.186;5.688;2022-07-23T15:43:41;25.70;99.90
16417;DHT22;8317;52.186;5.688;2022-07-23T15:46:09;25.80;99.90
16417;DHT22;8317;52.186;5.688;2022-07-23T15:48:36;25.90;99.90
16417;DHT22;8317;52.186;5.688;2022-07-23T15:51:04;25.90;99.90
16417;DHT22;8317;52.186;5.688;2022-07-23T15:53:31;26.00;99.90
16417;DHT22;8317;52.186;5.688;2022-07-23T15:56:00;25.90;99.90
16417;DHT22;8317;52.186;5.688;2022-07-23T15:58:27;25.90;99.90